Time;durP1;ratioP1;P1;durP2;ratioP2;P2;SDS_P1;SDS_P2;PMS_P1;PMS_P2;Temp;Humidity;BMP_temperature;BMP_pressure;BME280_temperature;BME280_humidity;BME280_pressure;Samples;Min_cycle;Max_cycle;Signal;HPM_P1;HPM_P2
2023/06/01 00:02:01;;;;;;;0.50;0.50;;;;;;;;;;7415781;19;20144;-90
2023/06/01 00:04:28;;;;;;;0.85;0.82;;;;;;;;;;7417998;19;20121;-90
2023/06/01 00:06:56;;;;;;;0.50;0.50;;;;;;;;;;7409082;19;20177;-91
2023/06/01 00:09:22;;;;;;;0.73;0.68;;;;;;;;;;7393998;19;20208;-91
2023/06/01 00:11:49;;;;;;;0.50;0.50;;;;;;;;;;7396669;19;20208;-91
2023/06/01 00:14:16;;;;;;;0.50;0.50;;;;;;;;;;7397701;19;20144;-90
2023/06/01 00:16:44;;;;;;;0.30;0.30;;;;;;;;;;7391718;19;20408;-90
2023/06/01 00:19:11;;;;;;;0.50;0.50;;;;;;;;;;7395117;19;20152;-91
2023/06/01 00:21:38;;;;;;;0.60;0.60;;;;;;;;;;7397932;19;20164;-90
2023/06/01 00:24:05;;;;;;;0.50;0.50;;;;;;;;;;7397558;19;20145;-91
2023/06/01 00:26:32;;;;;;;1.05;0.98;;;;;;;;;;7396445;19;20624;-91
2023/06/01 00:28:59;;;;;;;0.50;0.50;;;;;;;;;;7395973;19;20937;-91
2023/06/01 00:31:26;;;;;;;0.60;0.60;;;;;;;;;;7394322;19;20175;-91
2023/06/01 00:33:53;;;;;;;0.40;0.40;;;;;;;;;;7398528;19;20165;-92
2023/06/01 00:36:20;;;;;;;0.45;0.45;;;;;;;;;;7395753;19;20141;-91
2023/06/01 00:38:47;;;;;;;1.30;0.80;;;;;;;;;;7396158;19;20165;-91
2023/06/01 00:41:14;;;;;;;0.38;0.38;;;;;;;;;;7393102;19;20173;-91
2023/06/01 00:43:40;;;;;;;0.30;0.30;;;;;;;;;;7397152;19;20152;-92
2023/06/01 00:46:08;;;;;;;0.82;0.82;;;;;;;;;;7397472;19;20136;-91
2023/06/01 00:48:34;;;;;;;1.65;1.40;;;;;;;;;;7398603;19;20196;-91
2023/06/01 00:51:01;;;;;;;0.40;0.40;;;;;;;;;;7400079;19;20176;-90
2023/06/01 00:53:28;;;;;;;0.47;0.47;;;;;;;;;;7399735;19;20135;-90
2023/06/01 00:55:55;;;;;;;1.58;0.85;;;;;;;;;;7396022;19;20153;-92
2023/06/01 00:58:22;;;;;;;0.70;0.70;;;;;;;;;;7396631;19;20136;-91
2023/06/01 01:00:48;;;;;;;0.50;0.50;;;;;;;;;;7391026;19;20155;-91
2023/06/01 01:03:15;;;;;;;0.77;0.77;;;;;;;;;;7389914;19;20153;-91
2023/06/01 01:05:42;;;;;;;0.60;0.60;;;;;;;;;;7392686;19;20150;-91
2023/06/01 01:08:14;;;;;;;0.40;0.40;;;;;;;;;;7390939;19;20137;-91
2023/06/01 01:10:49;;;;;;;1.27;1.17;;;;;;;;;;7388187;19;20550;-91
2023/06/01 01:13:34;;;;;;;1.13;0.95;;;;;;;;;;7389750;19;20508;-91
2023/06/01 01:16:07;;;;;;;0.30;0.30;;;;;;;;;;7387261;19;20137;-91
2023/06/01 01:18:54;;;;;;;0.60;0.60;;;;;;;;;;7387369;19;20684;-91
2023/06/01 01:21:30;;;;;;;0.57;0.57;;;;;;;;;;7387759;19;20573;-92
2023/06/01 01:24:40;;;;;;;0.40;0.40;;;;;;;;;;7390208;19;20204;-92
2023/06/01 01:27:46;;;;;;;0.30;0.30;;;;;;;;;;7388277;19;20164;-91
2023/06/01 01:30:13;;;;;;;0.52;0.52;;;;;;;;;;7384281;19;20155;-91
2023/06/01 01:32:40;;;;;;;0.60;0.60;;;;;;;;;;7392664;19;20137;-91
2023/06/01 01:35:08;;;;;;;0.32;0.32;;;;;;;;;;7390179;19;20715;-91
2023/06/01 01:37:34;;;;;;;0.38;0.38;;;;;;;;;;7391900;19;20135;-92
2023/06/01 01:40:02;;;;;;;0.32;0.32;;;;;;;;;;7392159;19;20704;-92
2023/06/01 01:42:28;;;;;;;0.40;0.40;;;;;;;;;;7395454;19;20458;-90
2023/06/01 01:44:55;;;;;;;0.40;0.40;;;;;;;;;;7395273;19;20140;-90
2023/06/01 01:47:31;;;;;;;0.38;0.38;;;;;;;;;;7394403;19;20129;-91
2023/06/01 01:50:03;;;;;;;0.40;0.40;;;;;;;;;;7393153;19;20621;-91
2023/06/01 01:52:39;;;;;;;0.75;0.75;;;;;;;;;;7393396;19;20148;-92
2023/06/01 01:55:08;;;;;;;0.63;0.63;;;;;;;;;;7395162;19;20140;-91
2023/06/01 01:57:35;;;;;;;0.57;0.57;;;;;;;;;;7391471;19;20621;-92
2023/06/01 02:00:04;;;;;;;0.60;0.60;;;;;;;;;;7388955;19;20168;-92
2023/06/01 02:02:31;;;;;;;0.77;0.77;;;;;;;;;;7389621;19;20597;-91
2023/06/01 02:04:58;;;;;;;1.27;1.27;;;;;;;;;;7389230;19;20137;-91
2023/06/01 02:07:25;;;;;;;0.40;0.40;;;;;;;;;;7391447;19;20144;-92
2023/06/01 02:09:51;;;;;;;0.67;0.67;;;;;;;;;;7388963;19;20163;-91
2023/06/01 02:12:18;;;;;;;1.00;0.97;;;;;;;;;;7391030;19;20537;-91
2023/06/01 02:14:45;;;;;;;0.63;0.63;;;;;;;;;;7391578;19;20609;-91
2023/06/01 02:17:15;;;;;;;0.73;0.60;;;;;;;;;;7389411;19;20141;-93
2023/06/01 02:19:42;;;;;;;0.60;0.60;;;;;;;;;;7389476;19;20155;-92
2023/06/01 02:22:09;;;;;;;0.80;0.80;;;;;;;;;;7389211;19;20137;-92
2023/06/01 02:24:39;;;;;;;1.30;0.70;;;;;;;;;;7388279;19;20249;-91
2023/06/01 02:27:06;;;;;;;1.40;1.30;;;;;;;;;;7393068;19;20133;-90
2023/06/01 02:29:32;;;;;;;0.30;0.30;;;;;;;;;;7394055;19;20884;-91
2023/06/01 02:31:59;;;;;;;0.53;0.50;;;;;;;;;;7395062;19;20723;-90
2023/06/01 02:34:26;;;;;;;0.50;0.50;;;;;;;;;;7395608;19;20145;-92
2023/06/01 02:36:55;;;;;;;0.40;0.40;;;;;;;;;;7393898;19;20538;-91
2023/06/01 02:39:23;;;;;;;0.50;0.50;;;;;;;;;;7394752;19;20515;-92
2023/06/01 02:41:50;;;;;;;0.50;0.50;;;;;;;;;;7394319;19;20137;-91
2023/06/01 02:44:17;;;;;;;0.63;0.63;;;;;;;;;;7395586;19;20121;-90
2023/06/01 02:46:43;;;;;;;0.70;0.70;;;;;;;;;;7395733;19;20564;-91
2023/06/01 02:49:10;;;;;;;0.47;0.47;;;;;;;;;;7395740;19;20171;-92
2023/06/01 02:51:36;;;;;;;0.43;0.43;;;;;;;;;;7393377;19;20176;-91
2023/06/01 02:54:03;;;;;;;1.27;0.73;;;;;;;;;;7394284;19;20133;-91
2023/06/01 02:56:30;;;;;;;0.70;0.70;;;;;;;;;;7390325;19;20645;-90
2023/06/01 02:58:57;;;;;;;0.60;0.60;;;;;;;;;;7394295;19;20149;-90
2023/06/01 03:01:35;;;;;;;0.40;0.40;;;;;;;;;;7390306;19;20157;-91
2023/06/01 03:04:06;;;;;;;0.80;0.80;;;;;;;;;;7398815;19;20132;-91
2023/06/01 03:06:36;;;;;;;0.57;0.57;;;;;;;;;;7400080;19;20160;-91
2023/06/01 03:09:04;;;;;;;0.40;0.40;;;;;;;;;;7393813;19;20632;-91
2023/06/01 03:11:30;;;;;;;0.80;0.80;;;;;;;;;;7397815;19;20157;-92
2023/06/01 03:13:57;;;;;;;0.57;0.57;;;;;;;;;;7400888;19;20140;-92
2023/06/01 03:16:24;;;;;;;0.43;0.43;;;;;;;;;;7398804;19;20617;-91
2023/06/01 03:18:50;;;;;;;0.40;0.40;;;;;;;;;;7397147;19;20504;-92
2023/06/01 03:21:17;;;;;;;0.43;0.43;;;;;;;;;;7397941;19;20274;-91
2023/06/01 03:23:44;;;;;;;0.40;0.40;;;;;;;;;;7400574;19;20633;-92
2023/06/01 03:26:13;;;;;;;0.53;0.53;;;;;;;;;;7400588;19;20147;-92
2023/06/01 03:28:40;;;;;;;0.40;0.40;;;;;;;;;;7400078;19;20764;-90
2023/06/01 03:31:07;;;;;;;0.40;0.40;;;;;;;;;;7397982;19;20176;-91
2023/06/01 03:33:34;;;;;;;0.33;0.33;;;;;;;;;;7400788;19;20129;-90
2023/06/01 03:36:01;;;;;;;0.37;0.37;;;;;;;;;;7400454;19;20125;-92
2023/06/01 03:38:28;;;;;;;0.30;0.30;;;;;;;;;;7397806;19;20140;-91
2023/06/01 03:40:54;;;;;;;0.77;0.77;;;;;;;;;;7397308;19;20145;-92
2023/06/01 03:43:21;;;;;;;0.70;0.70;;;;;;;;;;7398774;19;20502;-92
2023/06/01 03:45:48;;;;;;;1.10;1.03;;;;;;;;;;7397089;19;20136;-91
2023/06/01 03:48:54;;;;;;;0.40;0.40;;;;;;;;;;7399139;19;20137;-92
2023/06/01 03:51:20;;;;;;;0.40;0.40;;;;;;;;;;7397209;19;20167;-91
2023/06/01 03:53:47;;;;;;;0.40;0.40;;;;;;;;;;7398928;19;20476;-90
2023/06/01 03:56:14;;;;;;;0.60;0.60;;;;;;;;;;7397766;19;20504;-90
2023/06/01 03:58:40;;;;;;;0.73;0.73;;;;;;;;;;7396277;19;20556;-91
2023/06/01 04:01:07;;;;;;;0.37;0.37;;;;;;;;;;7395682;19;20170;-91
2023/06/01 04:03:34;;;;;;;0.63;0.63;;;;;;;;;;7397554;19;20148;-91
2023/06/01 04:06:01;;;;;;;0.50;0.50;;;;;;;;;;7398377;19;20125;-92
2023/06/01 04:08:29;;;;;;;0.80;0.80;;;;;;;;;;7398735;19;20145;-91
2023/06/01 04:10:55;;;;;;;0.70;0.70;;;;;;;;;;7394654;19;20240;-92
2023/06/01 04:13:22;;;;;;;0.33;0.33;;;;;;;;;;7396766;19;20136;-93
2023/06/01 04:15:49;;;;;;;0.93;0.93;;;;;;;;;;7398317;19;20493;-92
2023/06/01 04:18:15;;;;;;;4.93;0.90;;;;;;;;;;7397947;19;20144;-92
2023/06/01 04:20:42;;;;;;;0.43;0.43;;;;;;;;;;7397526;19;20172;-92
2023/06/01 04:23:09;;;;;;;0.90;0.90;;;;;;;;;;7395702;19;20673;-91
2023/06/01 04:25:36;;;;;;;0.77;0.77;;;;;;;;;;7396876;19;20141;-91
2023/06/01 04:28:03;;;;;;;0.63;0.60;;;;;;;;;;7398914;19;20125;-91
2023/06/01 04:30:29;;;;;;;0.40;0.40;;;;;;;;;;7397532;19;20162;-92
2023/06/01 04:32:56;;;;;;;0.60;0.60;;;;;;;;;;7399368;19;20145;-92
2023/06/01 04:35:23;;;;;;;1.60;0.80;;;;;;;;;;7398460;19;20138;-91
2023/06/01 04:37:50;;;;;;;0.70;0.70;;;;;;;;;;7397487;19;20522;-92
2023/06/01 04:40:16;;;;;;;0.60;0.60;;;;;;;;;;7398041;19;20160;-92
2023/06/01 04:42:55;;;;;;;0.70;0.70;;;;;;;;;;7399175;19;20140;-92
2023/06/01 04:45:25;;;;;;;0.70;0.50;;;;;;;;;;7398868;19;20169;-91
2023/06/01 04:47:52;;;;;;;5.10;1.40;;;;;;;;;;7398770;19;20595;-92
2023/06/01 04:50:19;;;;;;;0.50;0.50;;;;;;;;;;7397454;19;20269;-90
2023/06/01 04:52:48;;;;;;;0.40;0.40;;;;;;;;;;7394705;19;20140;-91
2023/06/01 04:55:15;;;;;;;0.53;0.53;;;;;;;;;;7390848;19;20144;-93
2023/06/01 04:57:44;;;;;;;0.67;0.67;;;;;;;;;;7385481;19;20137;-93
2023/06/01 05:00:13;;;;;;;0.57;0.57;;;;;;;;;;7391547;19;20168;-92
2023/06/01 05:02:42;;;;;;;1.07;1.07;;;;;;;;;;7393376;19;20137;-89
2023/06/01 05:05:09;;;;;;;0.50;0.50;;;;;;;;;;7395554;19;20145;-92
2023/06/01 05:07:38;;;;;;;0.40;0.40;;;;;;;;;;7396309;19;20141;-92
2023/06/01 05:10:38;;;;;;;0.63;0.63;;;;;;;;;;7395555;19;20153;-91
2023/06/01 05:13:05;;;;;;;1.00;0.90;;;;;;;;;;7393656;19;20510;-91
2023/06/01 05:15:32;;;;;;;0.70;0.70;;;;;;;;;;7397718;19;20397;-91
2023/06/01 05:17:59;;;;;;;0.50;0.50;;;;;;;;;;7394450;19;20169;-92
2023/06/01 05:20:26;;;;;;;0.90;0.90;;;;;;;;;;7393331;19;20200;-92
2023/06/01 05:22:53;;;;;;;0.50;0.50;;;;;;;;;;7401721;19;20170;-92
2023/06/01 05:25:19;;;;;;;0.50;0.50;;;;;;;;;;7402287;19;20153;-92
2023/06/01 05:27:46;;;;;;;0.45;0.45;;;;;;;;;;7399328;19;20129;-91
2023/06/01 05:30:13;;;;;;;0.50;0.50;;;;;;;;;;7397905;19;20173;-93
2023/06/01 05:32:40;;;;;;;0.40;0.40;;;;;;;;;;7396463;19;20148;-92
2023/06/01 05:35:07;;;;;;;0.87;0.73;;;;;;;;;;7395967;19;20471;-91
2023/06/01 05:37:34;;;;;;;0.73;0.73;;;;;;;;;;7395868;19;20141;-92
2023/06/01 05:40:03;;;;;;;0.93;0.93;;;;;;;;;;7397708;19;20577;-93
2023/06/01 05:42:30;;;;;;;0.97;0.97;;;;;;;;;;7399028;19;20563;-92
2023/06/01 05:44:56;;;;;;;0.87;0.87;;;;;;;;;;7400139;19;20140;-91
2023/06/01 05:47:23;;;;;;;0.68;0.68;;;;;;;;;;7396445;19;20158;-91
2023/06/01 05:49:50;;;;;;;1.10;0.63;;;;;;;;;;7392745;19;20606;-90
2023/06/01 05:52:17;;;;;;;0.80;0.77;;;;;;;;;;7393732;19;20148;-90
2023/06/01 05:54:44;;;;;;;0.80;0.80;;;;;;;;;;7394362;19;20133;-91
2023/06/01 05:57:11;;;;;;;0.80;0.80;;;;;;;;;;7394270;19;20149;-90
2023/06/01 05:59:37;;;;;;;0.50;0.50;;;;;;;;;;7395134;19;20183;-91
2023/06/01 06:02:04;;;;;;;0.63;0.63;;;;;;;;;;7394532;19;20605;-91
2023/06/01 06:04:31;;;;;;;1.47;0.87;;;;;;;;;;7390169;19;20140;-91
2023/06/01 06:06:58;;;;;;;0.30;0.30;;;;;;;;;;7393349;19;20155;-93
2023/06/01 06:09:25;;;;;;;0.57;0.53;;;;;;;;;;7393096;19;20133;-91
2023/06/01 06:11:52;;;;;;;1.07;0.97;;;;;;;;;;7393331;19;20598;-92
2023/06/01 06:14:19;;;;;;;0.97;0.87;;;;;;;;;;7394919;19;20137;-92
2023/06/01 06:16:45;;;;;;;0.50;0.50;;;;;;;;;;7395663;19;20146;-91
2023/06/01 06:19:12;;;;;;;0.97;0.90;;;;;;;;;;7393391;19;20133;-92
2023/06/01 06:21:39;;;;;;;0.50;0.50;;;;;;;;;;7393864;19;20141;-92
2023/06/01 06:24:05;;;;;;;0.75;0.75;;;;;;;;;;7391875;19;20141;-92
2023/06/01 06:26:32;;;;;;;0.50;0.50;;;;;;;;;;7394208;19;20152;-92
2023/06/01 06:28:59;;;;;;;1.75;0.60;;;;;;;;;;7390341;19;20549;-91
2023/06/01 06:31:26;;;;;;;1.38;1.27;;;;;;;;;;7392586;19;20159;-91
2023/06/01 06:33:53;;;;;;;0.77;0.77;;;;;;;;;;7392726;19;20594;-90
2023/06/01 06:36:19;;;;;;;0.52;0.52;;;;;;;;;;7393222;19;20588;-90
2023/06/01 06:38:46;;;;;;;0.52;0.52;;;;;;;;;;7397434;19;20140;-91
2023/06/01 06:41:13;;;;;;;0.70;0.70;;;;;;;;;;7398376;19;20152;-91
2023/06/01 06:43:40;;;;;;;1.15;1.10;;;;;;;;;;7402839;19;20132;-91
2023/06/01 06:46:07;;;;;;;1.25;1.17;;;;;;;;;;7400007;19;20133;-91
2023/06/01 06:48:34;;;;;;;1.38;1.27;;;;;;;;;;7400155;19;20151;-86
2023/06/01 06:51:01;;;;;;;1.33;1.02;;;;;;;;;;7400511;19;20157;-86
2023/06/01 06:53:28;;;;;;;1.73;0.68;;;;;;;;;;7401579;19;20157;-86
2023/06/01 06:55:56;;;;;;;1.92;1.13;;;;;;;;;;7403057;19;20490;-86
2023/06/01 06:58:22;;;;;;;0.65;0.65;;;;;;;;;;7398852;19;20125;-86
2023/06/01 07:00:49;;;;;;;0.98;0.90;;;;;;;;;;7398784;19;20168;-87
2023/06/01 07:03:16;;;;;;;0.50;0.50;;;;;;;;;;7404188;19;20536;-87
2023/06/01 07:05:45;;;;;;;0.70;0.70;;;;;;;;;;7401044;19;20220;-90
2023/06/01 07:08:11;;;;;;;0.60;0.60;;;;;;;;;;7398334;19;20137;-91
2023/06/01 07:10:38;;;;;;;0.70;0.70;;;;;;;;;;7394696;19;20152;-91
2023/06/01 07:13:05;;;;;;;0.73;0.73;;;;;;;;;;7397562;19;20169;-90
2023/06/01 07:15:31;;;;;;;1.58;0.75;;;;;;;;;;7397445;19;20149;-90
2023/06/01 07:17:58;;;;;;;0.60;0.60;;;;;;;;;;7397322;19;20140;-89
2023/06/01 07:20:25;;;;;;;1.23;1.13;;;;;;;;;;7396016;19;20173;-90
2023/06/01 07:22:51;;;;;;;0.60;0.60;;;;;;;;;;7396829;19;20136;-90
2023/06/01 07:25:18;;;;;;;1.00;1.00;;;;;;;;;;7393830;19;20136;-90
2023/06/01 07:27:45;;;;;;;0.98;0.98;;;;;;;;;;7395993;19;20133;-91
2023/06/01 07:30:13;;;;;;;3.92;1.27;;;;;;;;;;7396731;19;20685;-90
2023/06/01 07:32:40;;;;;;;0.60;0.60;;;;;;;;;;7397832;19;20632;-90
2023/06/01 14:59:02;;;;;;;1.23;1.13;;;;;;;;;;7401004;19;20150;-92
2023/06/01 15:01:32;;;;;;;1.20;1.10;;;;;;;;;;7399454;19;20172;-91
2023/06/01 15:04:13;;;;;;;0.50;0.50;;;;;;;;;;7393592;19;20968;-90
2023/06/01 15:06:40;;;;;;;0.85;0.70;;;;;;;;;;7396067;19;20155;-91
2023/06/01 15:09:07;;;;;;;1.60;1.13;;;;;;;;;;7403653;19;20141;-91
2023/06/01 15:11:39;;;;;;;0.80;0.80;;;;;;;;;;7395542;19;20614;-90
2023/06/01 15:14:22;;;;;;;0.50;0.50;;;;;;;;;;7392780;19;20503;-90
2023/06/01 15:17:41;;;;;;;0.88;0.88;;;;;;;;;;7389837;19;20200;-91
2023/06/01 15:20:13;;;;;;;2.17;1.05;;;;;;;;;;7385521;19;21167;-91
2023/06/01 15:22:48;;;;;;;0.98;0.98;;;;;;;;;;7396103;19;20137;-91
2023/06/01 15:25:15;;;;;;;0.90;0.90;;;;;;;;;;7394672;19;20145;-91
2023/06/01 15:27:42;;;;;;;0.65;0.65;;;;;;;;;;7399644;19;20133;-90
2023/06/01 15:30:09;;;;;;;0.60;0.60;;;;;;;;;;7399834;19;20524;-90
2023/06/01 15:32:36;;;;;;;1.38;1.27;;;;;;;;;;7394193;19;20137;-90
2023/06/01 15:35:04;;;;;;;1.10;1.00;;;;;;;;;;7401703;19;20136;-90
2023/06/01 15:37:31;;;;;;;0.52;0.52;;;;;;;;;;7406079;19;20161;-92
2023/06/01 15:40:21;;;;;;;0.98;0.98;;;;;;;;;;7401593;19;20168;-91
2023/06/01 15:43:23;;;;;;;1.20;1.20;;;;;;;;;;7401621;19;20152;-92
2023/06/01 15:47:02;;;;;;;0.73;0.73;;;;;;;;;;7393374;19;20125;-92
2023/06/01 15:50:37;;;;;;;1.70;0.82;;;;;;;;;;7403525;19;20675;-91
2023/06/01 16:16:38;;;;;;;1.02;1.02;;;;;;;;;;7348189;19;20184;-88
2023/06/01 16:19:20;;;;;;;0.60;0.60;;;;;;;;;;7400996;19;20137;-88
2023/06/01 16:32:45;;;;;;;1.13;1.02;;;;;;;;;;7397764;19;20196;-87
2023/06/01 16:58:06;;;;;;;1.15;1.05;;;;;;;;;;7384562;19;20180;-89
2023/06/01 17:00:36;;;;;;;1.00;1.00;;;;;;;;;;7356026;19;20274;-90
2023/06/01 17:03:50;;;;;;;;;;;;;;;;;;;;;
2023/06/01 17:47:24;;;;;;;0.98;0.80;;;;;;;;;;7395544;19;20621;-86
2023/06/01 17:50:21;;;;;;;1.17;0.98;;;;;;;;;;7393717;19;20174;-88
2023/06/01 17:53:48;;;;;;;;;;;;;;;;;;;;;
2023/06/01 17:57:31;;;;;;;0.95;0.85;;;;;;;;;;7382073;19;20173;-86
2023/06/01 18:00:48;;;;;;;0.68;0.68;;;;;;;;;;7390721;19;20676;-87
2023/06/01 18:03:33;;;;;;;0.70;0.70;;;;;;;;;;7391629;19;20660;-89
2023/06/01 18:06:14;;;;;;;0.63;0.63;;;;;;;;;;7392463;19;20180;-87
2023/06/01 18:09:38;;;;;;;1.02;1.02;;;;;;;;;;7390145;19;20152;-89
2023/06/01 18:12:51;;;;;;;0.85;0.85;;;;;;;;;;7406293;19;20160;-89
2023/06/01 18:15:52;;;;;;;0.80;0.80;;;;;;;;;;7396978;19;20143;-87
2023/06/01 18:18:39;;;;;;;0.60;0.60;;;;;;;;;;7392011;19;20145;-87
2023/06/01 18:21:09;;;;;;;1.08;1.00;;;;;;;;;;7394370;19;20168;-85
2023/06/01 18:23:36;;;;;;;1.83;1.73;;;;;;;;;;7393904;19;20250;-86
2023/06/01 18:26:03;;;;;;;0.73;0.73;;;;;;;;;;7392527;19;20196;-86
2023/06/01 18:28:30;;;;;;;0.63;0.63;;;;;;;;;;7392219;19;20149;-86
2023/06/01 18:30:57;;;;;;;0.95;0.95;;;;;;;;;;7381866;19;20812;-87
2023/06/01 18:33:25;;;;;;;1.02;0.80;;;;;;;;;;7390697;19;20167;-86
2023/06/01 18:36:15;;;;;;;0.50;0.50;;;;;;;;;;7397515;19;20133;-86
2023/06/01 18:40:00;;;;;;;0.90;0.90;;;;;;;;;;7396073;19;20137;-89
2023/06/01 18:46:24;;;;;;;0.95;0.80;;;;;;;;;;7397620;19;20556;-89
2023/06/01 18:49:07;;;;;;;2.58;1.05;;;;;;;;;;7398490;19;20143;-89
2023/06/01 19:27:16;;;;;;;1.67;1.58;;;;;;;;;;7403886;19;20202;-91
2023/06/01 19:29:49;;;;;;;1.15;0.93;;;;;;;;;;7400906;19;20448;-91
2023/06/01 19:32:16;;;;;;;2.22;1.65;;;;;;;;;;7405775;19;20141;-91
2023/06/01 19:34:44;;;;;;;1.00;1.00;;;;;;;;;;7405867;19;20143;-90
2023/06/01 19:37:14;;;;;;;1.77;1.38;;;;;;;;;;7403645;19;20141;-91
2023/06/01 19:43:29;;;;;;;1.02;1.02;;;;;;;;;;7400286;19;20154;-92
2023/06/01 19:46:01;;;;;;;1.63;1.48;;;;;;;;;;7400264;19;20144;-91
2023/06/01 19:48:32;;;;;;;1.02;0.90;;;;;;;;;;7399735;19;20190;-92
2023/06/01 19:50:58;;;;;;;1.45;1.40;;;;;;;;;;7399625;19;20247;-91
2023/06/01 19:53:27;;;;;;;0.90;0.90;;;;;;;;;;7399497;19;20140;-91
2023/06/01 19:55:55;;;;;;;0.82;0.82;;;;;;;;;;7403827;19;20133;-91
2023/06/01 19:58:23;;;;;;;1.08;1.00;;;;;;;;;;7396181;19;20144;-91
2023/06/01 20:00:51;;;;;;;0.80;0.73;;;;;;;;;;7400610;19;20181;-91
2023/06/01 20:03:17;;;;;;;1.88;1.65;;;;;;;;;;7397002;19;20610;-91
2023/06/01 20:05:44;;;;;;;0.82;0.82;;;;;;;;;;7403815;19;20165;-91
2023/06/01 20:08:15;;;;;;;1.00;1.00;;;;;;;;;;7397593;19;20261;-91
2023/06/01 20:10:42;;;;;;;0.82;0.82;;;;;;;;;;7397950;19;20149;-91
2023/06/01 20:13:08;;;;;;;0.93;0.93;;;;;;;;;;7396409;19;20141;-90
2023/06/01 20:15:37;;;;;;;1.05;1.05;;;;;;;;;;7394200;19;20142;-92
2023/06/01 20:18:05;;;;;;;0.95;0.95;;;;;;;;;;7396197;19;20152;-90
2023/06/01 20:20:43;;;;;;;0.80;0.80;;;;;;;;;;7396019;19;20163;-92
2023/06/01 20:23:15;;;;;;;0.75;0.75;;;;;;;;;;7397138;19;20144;-91
2023/06/01 20:25:51;;;;;;;1.23;1.10;;;;;;;;;;7400014;19;20158;-90
2023/06/01 20:28:47;;;;;;;1.05;1.02;;;;;;;;;;7406282;19;20151;-90
2023/06/01 20:31:17;;;;;;;0.85;0.85;;;;;;;;;;7400103;19;20157;-91
2023/06/01 20:33:45;;;;;;;1.10;1.08;;;;;;;;;;7405751;19;20133;-94
2023/06/01 20:36:30;;;;;;;0.70;0.70;;;;;;;;;;7421816;19;20130;-95
2023/06/01 20:39:00;;;;;;;0.57;0.57;;;;;;;;;;7395694;19;20581;-93
2023/06/01 20:41:29;;;;;;;2.50;1.17;;;;;;;;;;7395434;19;20662;-93
2023/06/01 20:43:57;;;;;;;1.27;1.17;;;;;;;;;;7399773;19;20150;-92
2023/06/01 20:46:27;;;;;;;1.17;1.08;;;;;;;;;;7412178;19;20151;-92
2023/06/01 22:55:23;;;;;;;0.40;0.40;;;;;;;;;;7400053;19;20613;-91
2023/06/01 22:58:42;;;;;;;;;;;;;;;;;;;;;
